sensor_id;sensor_type;location;lat;lon;timestamp;P1;durP1;ratioP1;P2;durP2;ratioP2
19189;SDS011;9727;50.200;19.038;2024-03-17T00:00:57;8.80;;;4.73;;
19189;SDS011;9727;50.200;19.038;2024-03-17T00:03:25;6.40;;;4.40;;
19189;SDS011;9727;50.200;19.038;2024-03-17T00:05:56;6.30;;;4.77;;
19189;SDS011;9727;50.200;19.038;2024-03-17T00:08:22;9.10;;;4.77;;
19189;SDS011;9727;50.200;19.038;2024-03-17T00:10:49;6.57;;;4.20;;
19189;SDS011;9727;50.200;19.038;2024-03-17T00:13:16;5.63;;;4.03;;
19189;SDS011;9727;50.200;19.038;2024-03-17T00:15:42;7.87;;;4.17;;
19189;SDS011;9727;50.200;19.038;2024-03-17T00:18:08;5.93;;;4.20;;
19189;SDS011;9727;50.200;19.038;2024-03-17T00:20:34;5.57;;;3.60;;
19189;SDS011;9727;50.200;19.038;2024-03-17T00:23:02;7.00;;;4.17;;
19189;SDS011;9727;50.200;19.038;2024-03-17T00:25:28;7.57;;;4.60;;
19189;SDS011;9727;50.200;19.038;2024-03-17T00:27:56;5.33;;;4.03;;
19189;SDS011;9727;50.200;19.038;2024-03-17T00:30:23;7.10;;;4.70;;
19189;SDS011;9727;50.200;19.038;2024-03-17T00:32:49;7.50;;;4.93;;
19189;SDS011;9727;50.200;19.038;2024-03-17T00:35:15;10.43;;;5.37;;
19189;SDS011;9727;50.200;19.038;2024-03-17T00:37:45;8.70;;;5.17;;
19189;SDS011;9727;50.200;19.038;2024-03-17T00:40:12;10.57;;;5.90;;
19189;SDS011;9727;50.200;19.038;2024-03-17T00:42:39;9.03;;;6.93;;
19189;SDS011;9727;50.200;19.038;2024-03-17T00:45:04;14.47;;;7.63;;
19189;SDS011;9727;50.200;19.038;2024-03-17T00:47:31;11.20;;;7.17;;
19189;SDS011;9727;50.200;19.038;2024-03-17T00:49:58;9.70;;;6.97;;
19189;SDS011;9727;50.200;19.038;2024-03-17T00:52:24;12.33;;;6.40;;
19189;SDS011;9727;50.200;19.038;2024-03-17T00:54:50;10.47;;;7.07;;
19189;SDS011;9727;50.200;19.038;2024-03-17T00:57:18;8.87;;;6.10;;
19189;SDS011;9727;50.200;19.038;2024-03-17T00:59:44;10.57;;;6.43;;
19189;SDS011;9727;50.200;19.038;2024-03-17T01:02:10;12.17;;;7.23;;
19189;SDS011;9727;50.200;19.038;2024-03-17T01:04:39;13.13;;;7.40;;
19189;SDS011;9727;50.200;19.038;2024-03-17T01:07:07;14.40;;;9.43;;
19189;SDS011;9727;50.200;19.038;2024-03-17T01:09:33;13.77;;;8.53;;
19189;SDS011;9727;50.200;19.038;2024-03-17T01:12:00;16.73;;;9.00;;
19189;SDS011;9727;50.200;19.038;2024-03-17T01:14:28;17.30;;;9.93;;
19189;SDS011;9727;50.200;19.038;2024-03-17T01:16:54;13.93;;;9.37;;
19189;SDS011;9727;50.200;19.038;2024-03-17T01:19:20;11.77;;;8.27;;
19189;SDS011;9727;50.200;19.038;2024-03-17T01:21:46;14.43;;;8.37;;
19189;SDS011;9727;50.200;19.038;2024-03-17T01:24:12;25.87;;;15.30;;
19189;SDS011;9727;50.200;19.038;2024-03-17T01:26:38;26.27;;;17.03;;
19189;SDS011;9727;50.200;19.038;2024-03-17T01:29:04;29.50;;;18.03;;
19189;SDS011;9727;50.200;19.038;2024-03-17T01:31:31;26.87;;;17.03;;
19189;SDS011;9727;50.200;19.038;2024-03-17T01:33:58;24.47;;;16.37;;
19189;SDS011;9727;50.200;19.038;2024-03-17T01:36:24;24.40;;;15.77;;
19189;SDS011;9727;50.200;19.038;2024-03-17T01:38:50;25.23;;;14.87;;
19189;SDS011;9727;50.200;19.038;2024-03-17T01:41:17;16.93;;;9.80;;
19189;SDS011;9727;50.200;19.038;2024-03-17T01:43:44;16.13;;;8.70;;
19189;SDS011;9727;50.200;19.038;2024-03-17T01:46:10;12.97;;;6.73;;
19189;SDS011;9727;50.200;19.038;2024-03-17T01:48:39;14.50;;;6.50;;
19189;SDS011;9727;50.200;19.038;2024-03-17T01:51:05;12.37;;;6.00;;
19189;SDS011;9727;50.200;19.038;2024-03-17T01:53:31;11.93;;;5.63;;
19189;SDS011;9727;50.200;19.038;2024-03-17T01:56:03;12.27;;;5.73;;
19189;SDS011;9727;50.200;19.038;2024-03-17T01:58:30;14.17;;;5.93;;
19189;SDS011;9727;50.200;19.038;2024-03-17T02:00:55;11.20;;;5.57;;
19189;SDS011;9727;50.200;19.038;2024-03-17T02:03:22;12.70;;;5.90;;
19189;SDS011;9727;50.200;19.038;2024-03-17T02:05:49;9.80;;;5.03;;
19189;SDS011;9727;50.200;19.038;2024-03-17T02:08:16;10.17;;;5.90;;
19189;SDS011;9727;50.200;19.038;2024-03-17T02:10:43;12.97;;;5.63;;
19189;SDS011;9727;50.200;19.038;2024-03-17T02:13:09;11.23;;;5.10;;
19189;SDS011;9727;50.200;19.038;2024-03-17T02:15:35;11.80;;;4.80;;
19189;SDS011;9727;50.200;19.038;2024-03-17T02:18:01;8.33;;;4.67;;
19189;SDS011;9727;50.200;19.038;2024-03-17T02:20:27;9.33;;;4.93;;
19189;SDS011;9727;50.200;19.038;2024-03-17T02:23:09;10.70;;;4.73;;
19189;SDS011;9727;50.200;19.038;2024-03-17T02:25:35;9.90;;;4.57;;
19189;SDS011;9727;50.200;19.038;2024-03-17T02:28:01;11.00;;;4.50;;
19189;SDS011;9727;50.200;19.038;2024-03-17T02:30:28;12.23;;;4.47;;
19189;SDS011;9727;50.200;19.038;2024-03-17T02:32:53;8.80;;;4.07;;
19189;SDS011;9727;50.200;19.038;2024-03-17T02:35:20;7.40;;;4.47;;
19189;SDS011;9727;50.200;19.038;2024-03-17T02:37:47;9.47;;;5.10;;
19189;SDS011;9727;50.200;19.038;2024-03-17T02:40:14;8.50;;;5.07;;
19189;SDS011;9727;50.200;19.038;2024-03-17T02:42:43;9.43;;;4.77;;
19189;SDS011;9727;50.200;19.038;2024-03-17T02:45:10;10.03;;;5.10;;
19189;SDS011;9727;50.200;19.038;2024-03-17T02:47:37;9.33;;;4.33;;
19189;SDS011;9727;50.200;19.038;2024-03-17T02:50:03;10.50;;;4.57;;
19189;SDS011;9727;50.200;19.038;2024-03-17T02:52:30;12.57;;;5.20;;
19189;SDS011;9727;50.200;19.038;2024-03-17T02:54:57;14.93;;;4.80;;
19189;SDS011;9727;50.200;19.038;2024-03-17T02:57:25;9.03;;;4.10;;
19189;SDS011;9727;50.200;19.038;2024-03-17T02:59:54;11.20;;;3.80;;
19189;SDS011;9727;50.200;19.038;2024-03-17T03:02:21;9.17;;;3.87;;
19189;SDS011;9727;50.200;19.038;2024-03-17T03:04:48;8.03;;;4.03;;
19189;SDS011;9727;50.200;19.038;2024-03-17T03:07:14;6.17;;;3.50;;
19189;SDS011;9727;50.200;19.038;2024-03-17T03:09:41;10.77;;;3.63;;
19189;SDS011;9727;50.200;19.038;2024-03-17T03:12:08;8.33;;;4.03;;
19189;SDS011;9727;50.200;19.038;2024-03-17T03:14:38;10.73;;;3.70;;
19189;SDS011;9727;50.200;19.038;2024-03-17T03:17:05;6.17;;;4.10;;
19189;SDS011;9727;50.200;19.038;2024-03-17T03:19:31;7.20;;;3.70;;
19189;SDS011;9727;50.200;19.038;2024-03-17T03:22:01;8.57;;;3.87;;
19189;SDS011;9727;50.200;19.038;2024-03-17T03:24:27;7.23;;;3.60;;
19189;SDS011;9727;50.200;19.038;2024-03-17T03:26:54;10.07;;;3.80;;
19189;SDS011;9727;50.200;19.038;2024-03-17T03:29:20;11.50;;;4.07;;
19189;SDS011;9727;50.200;19.038;2024-03-17T03:31:48;7.07;;;3.60;;
19189;SDS011;9727;50.200;19.038;2024-03-17T03:34:15;15.83;;;4.00;;
19189;SDS011;9727;50.200;19.038;2024-03-17T03:36:41;8.07;;;4.00;;
19189;SDS011;9727;50.200;19.038;2024-03-17T03:39:08;15.03;;;3.93;;
19189;SDS011;9727;50.200;19.038;2024-03-17T03:41:36;8.20;;;3.30;;
19189;SDS011;9727;50.200;19.038;2024-03-17T03:44:03;11.43;;;4.23;;
19189;SDS011;9727;50.200;19.038;2024-03-17T03:46:29;10.60;;;4.10;;
19189;SDS011;9727;50.200;19.038;2024-03-17T03:48:57;13.73;;;3.77;;
19189;SDS011;9727;50.200;19.038;2024-03-17T03:51:24;9.30;;;3.60;;
19189;SDS011;9727;50.200;19.038;2024-03-17T03:56:37;8.77;;;3.07;;
19189;SDS011;9727;50.200;19.038;2024-03-17T03:59:04;8.07;;;3.30;;
19189;SDS011;9727;50.200;19.038;2024-03-17T04:01:31;10.30;;;3.60;;
19189;SDS011;9727;50.200;19.038;2024-03-17T04:03:59;8.03;;;3.37;;
19189;SDS011;9727;50.200;19.038;2024-03-17T04:06:26;9.60;;;3.13;;
19189;SDS011;9727;50.200;19.038;2024-03-17T04:08:52;10.90;;;3.20;;
19189;SDS011;9727;50.200;19.038;2024-03-17T04:11:19;11.03;;;3.13;;
19189;SDS011;9727;50.200;19.038;2024-03-17T04:13:46;10.10;;;3.70;;
19189;SDS011;9727;50.200;19.038;2024-03-17T04:16:14;8.27;;;3.10;;
19189;SDS011;9727;50.200;19.038;2024-03-17T04:18:40;7.20;;;2.73;;
19189;SDS011;9727;50.200;19.038;2024-03-17T04:21:08;8.60;;;3.23;;
19189;SDS011;9727;50.200;19.038;2024-03-17T04:23:35;8.30;;;2.90;;
19189;SDS011;9727;50.200;19.038;2024-03-17T04:26:03;8.70;;;2.80;;
19189;SDS011;9727;50.200;19.038;2024-03-17T04:28:33;8.30;;;3.00;;
19189;SDS011;9727;50.200;19.038;2024-03-17T04:31:02;8.30;;;3.20;;
19189;SDS011;9727;50.200;19.038;2024-03-17T04:33:29;9.47;;;2.93;;
19189;SDS011;9727;50.200;19.038;2024-03-17T04:35:56;10.73;;;2.90;;
19189;SDS011;9727;50.200;19.038;2024-03-17T04:38:24;7.10;;;2.60;;
19189;SDS011;9727;50.200;19.038;2024-03-17T04:40:50;10.87;;;2.80;;
19189;SDS011;9727;50.200;19.038;2024-03-17T04:43:22;7.47;;;2.43;;
19189;SDS011;9727;50.200;19.038;2024-03-17T04:45:48;9.93;;;3.00;;
19189;SDS011;9727;50.200;19.038;2024-03-17T04:48:15;6.00;;;2.70;;
19189;SDS011;9727;50.200;19.038;2024-03-17T04:50:41;6.67;;;2.67;;
19189;SDS011;9727;50.200;19.038;2024-03-17T04:53:08;7.13;;;2.77;;
19189;SDS011;9727;50.200;19.038;2024-03-17T04:55:36;5.90;;;2.43;;
19189;SDS011;9727;50.200;19.038;2024-03-17T04:58:03;8.17;;;2.70;;
19189;SDS011;9727;50.200;19.038;2024-03-17T05:00:30;7.47;;;2.60;;
19189;SDS011;9727;50.200;19.038;2024-03-17T05:02:56;8.73;;;3.00;;
19189;SDS011;9727;50.200;19.038;2024-03-17T05:05:23;6.60;;;2.73;;
19189;SDS011;9727;50.200;19.038;2024-03-17T05:07:50;6.97;;;2.90;;
19189;SDS011;9727;50.200;19.038;2024-03-17T05:10:16;8.07;;;2.93;;
19189;SDS011;9727;50.200;19.038;2024-03-17T05:12:44;9.93;;;3.20;;
19189;SDS011;9727;50.200;19.038;2024-03-17T05:15:12;7.80;;;3.17;;
19189;SDS011;9727;50.200;19.038;2024-03-17T05:17:38;8.57;;;3.43;;
19189;SDS011;9727;50.200;19.038;2024-03-17T05:20:05;13.10;;;3.60;;
19189;SDS011;9727;50.200;19.038;2024-03-17T05:22:33;11.67;;;3.93;;
19189;SDS011;9727;50.200;19.038;2024-03-17T05:25:00;11.40;;;4.07;;
19189;SDS011;9727;50.200;19.038;2024-03-17T05:27:26;12.97;;;4.87;;
19189;SDS011;9727;50.200;19.038;2024-03-17T05:29:54;14.33;;;4.73;;
19189;SDS011;9727;50.200;19.038;2024-03-17T05:32:21;10.63;;;4.40;;
19189;SDS011;9727;50.200;19.038;2024-03-17T05:34:48;13.57;;;5.03;;
19189;SDS011;9727;50.200;19.038;2024-03-17T05:37:14;14.27;;;5.13;;
19189;SDS011;9727;50.200;19.038;2024-03-17T05:39:41;11.50;;;5.20;;
19189;SDS011;9727;50.200;19.038;2024-03-17T05:42:07;12.17;;;4.90;;
19189;SDS011;9727;50.200;19.038;2024-03-17T05:44:35;10.17;;;4.60;;
19189;SDS011;9727;50.200;19.038;2024-03-17T05:47:17;11.63;;;5.00;;
19189;SDS011;9727;50.200;19.038;2024-03-17T05:49:44;12.00;;;4.87;;
19189;SDS011;9727;50.200;19.038;2024-03-17T05:52:10;11.67;;;4.20;;
19189;SDS011;9727;50.200;19.038;2024-03-17T05:54:37;8.50;;;4.20;;
19189;SDS011;9727;50.200;19.038;2024-03-17T05:57:04;7.17;;;3.60;;
19189;SDS011;9727;50.200;19.038;2024-03-17T05:59:32;13.40;;;3.90;;
19189;SDS011;9727;50.200;19.038;2024-03-17T06:02:00;9.63;;;3.93;;
19189;SDS011;9727;50.200;19.038;2024-03-17T06:04:28;13.17;;;3.93;;
19189;SDS011;9727;50.200;19.038;2024-03-17T06:06:55;12.17;;;4.30;;
19189;SDS011;9727;50.200;19.038;2024-03-17T06:09:21;11.43;;;3.80;;
19189;SDS011;9727;50.200;19.038;2024-03-17T06:11:48;10.07;;;3.90;;
19189;SDS011;9727;50.200;19.038;2024-03-17T06:14:15;10.17;;;3.87;;
19189;SDS011;9727;50.200;19.038;2024-03-17T06:16:42;13.17;;;4.23;;
19189;SDS011;9727;50.200;19.038;2024-03-17T06:19:09;10.67;;;3.73;;
19189;SDS011;9727;50.200;19.038;2024-03-17T06:21:37;9.53;;;3.63;;
19189;SDS011;9727;50.200;19.038;2024-03-17T06:24:04;12.37;;;4.03;;
19189;SDS011;9727;50.200;19.038;2024-03-17T06:26:32;10.60;;;3.97;;
19189;SDS011;9727;50.200;19.038;2024-03-17T06:29:01;16.23;;;4.30;;
19189;SDS011;9727;50.200;19.038;2024-03-17T06:31:28;15.47;;;4.70;;
19189;SDS011;9727;50.200;19.038;2024-03-17T06:33:54;11.27;;;3.93;;
19189;SDS011;9727;50.200;19.038;2024-03-17T06:36:21;12.27;;;4.00;;
19189;SDS011;9727;50.200;19.038;2024-03-17T06:38:49;12.10;;;4.23;;
19189;SDS011;9727;50.200;19.038;2024-03-17T06:41:16;11.17;;;4.17;;
19189;SDS011;9727;50.200;19.038;2024-03-17T06:43:42;13.67;;;4.17;;
19189;SDS011;9727;50.200;19.038;2024-03-17T06:46:09;11.83;;;3.90;;
19189;SDS011;9727;50.200;19.038;2024-03-17T06:48:36;11.97;;;3.50;;
19189;SDS011;9727;50.200;19.038;2024-03-17T06:51:02;11.47;;;3.57;;
19189;SDS011;9727;50.200;19.038;2024-03-17T06:53:29;10.40;;;3.70;;
19189;SDS011;9727;50.200;19.038;2024-03-17T06:55:57;10.73;;;3.60;;
19189;SDS011;9727;50.200;19.038;2024-03-17T06:58:24;11.63;;;3.33;;
19189;SDS011;9727;50.200;19.038;2024-03-17T07:00:55;9.20;;;3.40;;
19189;SDS011;9727;50.200;19.038;2024-03-17T07:03:25;7.67;;;3.10;;
19189;SDS011;9727;50.200;19.038;2024-03-17T07:05:53;6.47;;;2.77;;
19189;SDS011;9727;50.200;19.038;2024-03-17T07:08:20;11.00;;;2.90;;
19189;SDS011;9727;50.200;19.038;2024-03-17T07:10:58;7.23;;;2.67;;
19189;SDS011;9727;50.200;19.038;2024-03-17T07:13:28;11.73;;;2.83;;
19189;SDS011;9727;50.200;19.038;2024-03-17T07:15:55;13.10;;;3.00;;
19189;SDS011;9727;50.200;19.038;2024-03-17T07:18:21;9.23;;;2.90;;
19189;SDS011;9727;50.200;19.038;2024-03-17T07:20:48;8.43;;;2.90;;
19189;SDS011;9727;50.200;19.038;2024-03-17T07:23:14;12.63;;;2.67;;
19189;SDS011;9727;50.200;19.038;2024-03-17T07:25:41;9.27;;;2.70;;
19189;SDS011;9727;50.200;19.038;2024-03-17T07:28:10;8.20;;;2.60;;
19189;SDS011;9727;50.200;19.038;2024-03-17T07:30:36;6.03;;;2.33;;
19189;SDS011;9727;50.200;19.038;2024-03-17T07:33:03;8.87;;;2.50;;
19189;SDS011;9727;50.200;19.038;2024-03-17T07:35:29;5.17;;;2.20;;
19189;SDS011;9727;50.200;19.038;2024-03-17T07:37:56;7.63;;;2.53;;
19189;SDS011;9727;50.200;19.038;2024-03-17T07:40:22;10.70;;;2.57;;
19189;SDS011;9727;50.200;19.038;2024-03-17T07:42:49;10.43;;;3.27;;
19189;SDS011;9727;50.200;19.038;2024-03-17T07:45:17;7.03;;;2.17;;
19189;SDS011;9727;50.200;19.038;2024-03-17T07:47:43;8.53;;;2.47;;
19189;SDS011;9727;50.200;19.038;2024-03-17T07:50:10;8.93;;;2.50;;
19189;SDS011;9727;50.200;19.038;2024-03-17T07:52:37;11.70;;;3.10;;
19189;SDS011;9727;50.200;19.038;2024-03-17T07:55:04;7.63;;;2.60;;
19189;SDS011;9727;50.200;19.038;2024-03-17T07:57:31;10.80;;;2.40;;
19189;SDS011;9727;50.200;19.038;2024-03-17T08:00:06;9.63;;;2.23;;
19189;SDS011;9727;50.200;19.038;2024-03-17T08:02:42;7.30;;;2.27;;
19189;SDS011;9727;50.200;19.038;2024-03-17T08:05:11;10.87;;;2.43;;
19189;SDS011;9727;50.200;19.038;2024-03-17T08:07:38;10.47;;;2.43;;
19189;SDS011;9727;50.200;19.038;2024-03-17T08:10:07;4.43;;;2.27;;
19189;SDS011;9727;50.200;19.038;2024-03-17T08:12:33;8.37;;;2.33;;
19189;SDS011;9727;50.200;19.038;2024-03-17T08:15:00;13.30;;;3.83;;
19189;SDS011;9727;50.200;19.038;2024-03-17T08:17:27;8.13;;;2.23;;
19189;SDS011;9727;50.200;19.038;2024-03-17T08:19:55;7.70;;;2.27;;
19189;SDS011;9727;50.200;19.038;2024-03-17T08:22:22;10.17;;;2.97;;
19189;SDS011;9727;50.200;19.038;2024-03-17T08:24:48;4.93;;;2.20;;
19189;SDS011;9727;50.200;19.038;2024-03-17T08:27:15;7.07;;;2.13;;
19189;SDS011;9727;50.200;19.038;2024-03-17T08:29:42;6.27;;;2.43;;
19189;SDS011;9727;50.200;19.038;2024-03-17T08:32:08;6.83;;;2.33;;
19189;SDS011;9727;50.200;19.038;2024-03-17T08:34:35;5.23;;;2.10;;
19189;SDS011;9727;50.200;19.038;2024-03-17T08:37:03;8.33;;;2.50;;
19189;SDS011;9727;50.200;19.038;2024-03-17T08:39:30;6.13;;;2.37;;
19189;SDS011;9727;50.200;19.038;2024-03-17T08:41:56;6.87;;;2.50;;
19189;SDS011;9727;50.200;19.038;2024-03-17T08:44:24;7.87;;;2.40;;
19189;SDS011;9727;50.200;19.038;2024-03-17T08:46:50;7.37;;;2.80;;
19189;SDS011;9727;50.200;19.038;2024-03-17T08:49:17;8.97;;;2.30;;
19189;SDS011;9727;50.200;19.038;2024-03-17T08:51:44;3.90;;;1.80;;
19189;SDS011;9727;50.200;19.038;2024-03-17T08:54:12;5.93;;;1.90;;
19189;SDS011;9727;50.200;19.038;2024-03-17T08:56:38;7.93;;;2.13;;
19189;SDS011;9727;50.200;19.038;2024-03-17T08:59:05;7.13;;;2.47;;
19189;SDS011;9727;50.200;19.038;2024-03-17T09:01:31;6.43;;;1.90;;
19189;SDS011;9727;50.200;19.038;2024-03-17T09:03:59;8.43;;;2.10;;
19189;SDS011;9727;50.200;19.038;2024-03-17T09:06:26;5.97;;;2.20;;
19189;SDS011;9727;50.200;19.038;2024-03-17T09:08:55;4.00;;;1.73;;
19189;SDS011;9727;50.200;19.038;2024-03-17T09:11:23;5.20;;;1.53;;
19189;SDS011;9727;50.200;19.038;2024-03-17T09:13:52;5.10;;;2.03;;
19189;SDS011;9727;50.200;19.038;2024-03-17T09:16:19;3.27;;;1.40;;
19189;SDS011;9727;50.200;19.038;2024-03-17T09:18:47;5.53;;;1.60;;
19189;SDS011;9727;50.200;19.038;2024-03-17T09:21:14;4.83;;;1.40;;
19189;SDS011;9727;50.200;19.038;2024-03-17T09:23:43;10.63;;;2.50;;
19189;SDS011;9727;50.200;19.038;2024-03-17T09:26:10;8.63;;;2.50;;
19189;SDS011;9727;50.200;19.038;2024-03-17T09:28:39;3.63;;;2.13;;
19189;SDS011;9727;50.200;19.038;2024-03-17T09:31:06;7.73;;;2.23;;
19189;SDS011;9727;50.200;19.038;2024-03-17T09:33:33;6.43;;;2.17;;
19189;SDS011;9727;50.200;19.038;2024-03-17T09:36:02;5.20;;;2.20;;
19189;SDS011;9727;50.200;19.038;2024-03-17T09:38:31;4.73;;;2.00;;
19189;SDS011;9727;50.200;19.038;2024-03-17T09:40:58;6.23;;;2.00;;
19189;SDS011;9727;50.200;19.038;2024-03-17T09:43:26;6.23;;;1.77;;
19189;SDS011;9727;50.200;19.038;2024-03-17T09:45:54;6.43;;;1.80;;
19189;SDS011;9727;50.200;19.038;2024-03-17T09:48:23;5.13;;;1.70;;
19189;SDS011;9727;50.200;19.038;2024-03-17T09:50:50;7.50;;;2.17;;
19189;SDS011;9727;50.200;19.038;2024-03-17T09:53:19;9.77;;;1.70;;
19189;SDS011;9727;50.200;19.038;2024-03-17T09:55:48;4.67;;;1.70;;
19189;SDS011;9727;50.200;19.038;2024-03-17T09:58:15;7.17;;;1.93;;
19189;SDS011;9727;50.200;19.038;2024-03-17T10:00:42;9.63;;;2.40;;
19189;SDS011;9727;50.200;19.038;2024-03-17T10:03:10;7.87;;;1.93;;
19189;SDS011;9727;50.200;19.038;2024-03-17T10:05:38;4.97;;;1.67;;
19189;SDS011;9727;50.200;19.038;2024-03-17T10:08:05;6.23;;;1.60;;
19189;SDS011;9727;50.200;19.038;2024-03-17T10:10:35;3.80;;;1.30;;
19189;SDS011;9727;50.200;19.038;2024-03-17T10:13:01;4.17;;;1.57;;
19189;SDS011;9727;50.200;19.038;2024-03-17T10:15:28;7.03;;;1.83;;
19189;SDS011;9727;50.200;19.038;2024-03-17T10:17:54;5.73;;;1.97;;
19189;SDS011;9727;50.200;19.038;2024-03-17T10:20:23;4.50;;;1.50;;
19189;SDS011;9727;50.200;19.038;2024-03-17T10:22:57;5.87;;;1.60;;
19189;SDS011;9727;50.200;19.038;2024-03-17T10:25:24;5.50;;;1.73;;
19189;SDS011;9727;50.200;19.038;2024-03-17T10:27:51;4.43;;;1.40;;
19189;SDS011;9727;50.200;19.038;2024-03-17T10:30:18;5.03;;;1.40;;
19189;SDS011;9727;50.200;19.038;2024-03-17T10:32:46;3.80;;;1.33;;
19189;SDS011;9727;50.200;19.038;2024-03-17T10:35:29;10.03;;;1.77;;
19189;SDS011;9727;50.200;19.038;2024-03-17T10:37:56;5.30;;;1.63;;
19189;SDS011;9727;50.200;19.038;2024-03-17T10:40:23;4.73;;;1.50;;
19189;SDS011;9727;50.200;19.038;2024-03-17T10:42:50;5.37;;;1.50;;
19189;SDS011;9727;50.200;19.038;2024-03-17T10:45:17;7.60;;;1.53;;
19189;SDS011;9727;50.200;19.038;2024-03-17T10:47:46;4.93;;;1.50;;
19189;SDS011;9727;50.200;19.038;2024-03-17T10:50:15;3.53;;;1.33;;
19189;SDS011;9727;50.200;19.038;2024-03-17T10:52:45;6.40;;;1.43;;
19189;SDS011;9727;50.200;19.038;2024-03-17T10:55:19;6.93;;;1.73;;
19189;SDS011;9727;50.200;19.038;2024-03-17T10:57:47;7.17;;;1.50;;
19189;SDS011;9727;50.200;19.038;2024-03-17T11:00:16;5.03;;;1.37;;
19189;SDS011;9727;50.200;19.038;2024-03-17T11:02:44;5.07;;;1.80;;
19189;SDS011;9727;50.200;19.038;2024-03-17T11:05:13;7.97;;;1.97;;
19189;SDS011;9727;50.200;19.038;2024-03-17T11:07:41;5.73;;;1.93;;
19189;SDS011;9727;50.200;19.038;2024-03-17T11:10:14;8.33;;;1.50;;
19189;SDS011;9727;50.200;19.038;2024-03-17T11:12:42;2.93;;;1.43;;
19189;SDS011;9727;50.200;19.038;2024-03-17T11:17:55;7.07;;;1.60;;
19189;SDS011;9727;50.200;19.038;2024-03-17T11:20:23;6.13;;;1.53;;
19189;SDS011;9727;50.200;19.038;2024-03-17T11:22:50;3.60;;;1.40;;
19189;SDS011;9727;50.200;19.038;2024-03-17T11:28:04;4.60;;;1.50;;
19189;SDS011;9727;50.200;19.038;2024-03-17T11:30:45;5.70;;;1.60;;
19189;SDS011;9727;50.200;19.038;2024-03-17T11:38:52;5.13;;;1.43;;
19189;SDS011;9727;50.200;19.038;2024-03-17T11:41:36;7.13;;;1.40;;
19189;SDS011;9727;50.200;19.038;2024-03-17T11:44:15;8.30;;;1.17;;
19189;SDS011;9727;50.200;19.038;2024-03-17T11:46:41;5.50;;;1.30;;
19189;SDS011;9727;50.200;19.038;2024-03-17T11:49:11;4.87;;;1.50;;
19189;SDS011;9727;50.200;19.038;2024-03-17T11:51:41;5.67;;;1.47;;
19189;SDS011;9727;50.200;19.038;2024-03-17T11:54:09;4.77;;;1.43;;
19189;SDS011;9727;50.200;19.038;2024-03-17T11:56:38;4.53;;;1.87;;
19189;SDS011;9727;50.200;19.038;2024-03-17T11:59:05;3.87;;;1.43;;
19189;SDS011;9727;50.200;19.038;2024-03-17T12:01:32;7.87;;;1.70;;
19189;SDS011;9727;50.200;19.038;2024-03-17T12:04:00;6.67;;;1.57;;
19189;SDS011;9727;50.200;19.038;2024-03-17T12:06:30;4.90;;;1.40;;
19189;SDS011;9727;50.200;19.038;2024-03-17T12:09:07;3.33;;;1.60;;
19189;SDS011;9727;50.200;19.038;2024-03-17T12:11:33;7.40;;;1.30;;
19189;SDS011;9727;50.200;19.038;2024-03-17T12:14:00;7.13;;;1.63;;
19189;SDS011;9727;50.200;19.038;2024-03-17T12:16:36;4.57;;;1.50;;
19189;SDS011;9727;50.200;19.038;2024-03-17T12:19:05;5.93;;;1.90;;
19189;SDS011;9727;50.200;19.038;2024-03-17T12:21:31;3.53;;;1.37;;
19189;SDS011;9727;50.200;19.038;2024-03-17T12:24:00;7.87;;;1.70;;
19189;SDS011;9727;50.200;19.038;2024-03-17T12:26:26;6.30;;;1.87;;
19189;SDS011;9727;50.200;19.038;2024-03-17T12:28:52;4.37;;;1.90;;
19189;SDS011;9727;50.200;19.038;2024-03-17T12:31:18;7.93;;;1.70;;
19189;SDS011;9727;50.200;19.038;2024-03-17T12:33:46;4.50;;;1.53;;
19189;SDS011;9727;50.200;19.038;2024-03-17T12:36:12;3.37;;;1.47;;
19189;SDS011;9727;50.200;19.038;2024-03-17T12:38:38;2.70;;;1.10;;
19189;SDS011;9727;50.200;19.038;2024-03-17T12:41:04;6.03;;;1.60;;
19189;SDS011;9727;50.200;19.038;2024-03-17T12:43:35;4.17;;;1.40;;
19189;SDS011;9727;50.200;19.038;2024-03-17T12:46:01;5.00;;;1.40;;
19189;SDS011;9727;50.200;19.038;2024-03-17T12:48:27;3.00;;;1.20;;
19189;SDS011;9727;50.200;19.038;2024-03-17T12:50:54;4.50;;;1.20;;
19189;SDS011;9727;50.200;19.038;2024-03-17T12:53:21;3.17;;;1.23;;
19189;SDS011;9727;50.200;19.038;2024-03-17T12:55:52;6.87;;;1.60;;
19189;SDS011;9727;50.200;19.038;2024-03-17T12:58:36;4.03;;;1.40;;
19189;SDS011;9727;50.200;19.038;2024-03-17T13:01:35;5.27;;;1.90;;
19189;SDS011;9727;50.200;19.038;2024-03-17T13:04:04;4.63;;;1.30;;
19189;SDS011;9727;50.200;19.038;2024-03-17T13:06:35;3.97;;;1.50;;
19189;SDS011;9727;50.200;19.038;2024-03-17T13:09:01;4.03;;;1.70;;
19189;SDS011;9727;50.200;19.038;2024-03-17T13:11:28;5.77;;;2.03;;
19189;SDS011;9727;50.200;19.038;2024-03-17T13:13:55;4.27;;;1.50;;
19189;SDS011;9727;50.200;19.038;2024-03-17T13:16:21;7.17;;;1.53;;
19189;SDS011;9727;50.200;19.038;2024-03-17T13:18:48;5.57;;;1.60;;
19189;SDS011;9727;50.200;19.038;2024-03-17T13:21:14;6.80;;;1.83;;
19189;SDS011;9727;50.200;19.038;2024-03-17T13:23:42;4.40;;;1.30;;
19189;SDS011;9727;50.200;19.038;2024-03-17T13:26:10;6.43;;;1.40;;
19189;SDS011;9727;50.200;19.038;2024-03-17T13:28:36;6.53;;;1.77;;
19189;SDS011;9727;50.200;19.038;2024-03-17T13:31:02;9.30;;;1.80;;
19189;SDS011;9727;50.200;19.038;2024-03-17T13:33:30;4.93;;;1.60;;
19189;SDS011;9727;50.200;19.038;2024-03-17T13:35:58;7.43;;;1.83;;
19189;SDS011;9727;50.200;19.038;2024-03-17T13:38:24;4.67;;;1.77;;
19189;SDS011;9727;50.200;19.038;2024-03-17T13:40:52;8.87;;;1.50;;
19189;SDS011;9727;50.200;19.038;2024-03-17T13:43:19;4.13;;;1.63;;
19189;SDS011;9727;50.200;19.038;2024-03-17T13:45:45;5.63;;;1.50;;
19189;SDS011;9727;50.200;19.038;2024-03-17T13:48:13;6.60;;;1.60;;
19189;SDS011;9727;50.200;19.038;2024-03-17T13:50:39;3.43;;;1.60;;
19189;SDS011;9727;50.200;19.038;2024-03-17T13:53:09;6.27;;;1.77;;
19189;SDS011;9727;50.200;19.038;2024-03-17T13:55:36;3.50;;;1.53;;
19189;SDS011;9727;50.200;19.038;2024-03-17T13:58:04;8.43;;;1.90;;
19189;SDS011;9727;50.200;19.038;2024-03-17T14:00:31;6.90;;;1.57;;
19189;SDS011;9727;50.200;19.038;2024-03-17T14:03:02;6.90;;;1.53;;
19189;SDS011;9727;50.200;19.038;2024-03-17T14:05:28;3.20;;;1.40;;
19189;SDS011;9727;50.200;19.038;2024-03-17T14:07:58;3.23;;;1.40;;
19189;SDS011;9727;50.200;19.038;2024-03-17T14:10:25;6.77;;;1.63;;
19189;SDS011;9727;50.200;19.038;2024-03-17T14:12:52;4.43;;;1.70;;
19189;SDS011;9727;50.200;19.038;2024-03-17T14:15:20;8.90;;;2.10;;
19189;SDS011;9727;50.200;19.038;2024-03-17T14:17:47;4.87;;;1.53;;
19189;SDS011;9727;50.200;19.038;2024-03-17T14:20:15;3.93;;;1.60;;
19189;SDS011;9727;50.200;19.038;2024-03-17T14:22:43;9.50;;;1.67;;
19189;SDS011;9727;50.200;19.038;2024-03-17T14:25:14;5.23;;;1.53;;
19189;SDS011;9727;50.200;19.038;2024-03-17T14:27:42;6.77;;;2.00;;
19189;SDS011;9727;50.200;19.038;2024-03-17T14:30:09;4.37;;;1.77;;
19189;SDS011;9727;50.200;19.038;2024-03-17T14:32:40;6.30;;;1.70;;
19189;SDS011;9727;50.200;19.038;2024-03-17T14:35:06;5.90;;;1.70;;
19189;SDS011;9727;50.200;19.038;2024-03-17T14:37:38;6.57;;;1.80;;
19189;SDS011;9727;50.200;19.038;2024-03-17T14:40:07;5.47;;;1.70;;
19189;SDS011;9727;50.200;19.038;2024-03-17T14:42:40;5.83;;;1.77;;
19189;SDS011;9727;50.200;19.038;2024-03-17T14:45:08;5.53;;;1.80;;
19189;SDS011;9727;50.200;19.038;2024-03-17T14:47:35;4.67;;;1.67;;
19189;SDS011;9727;50.200;19.038;2024-03-17T14:50:03;5.23;;;1.90;;
19189;SDS011;9727;50.200;19.038;2024-03-17T14:52:30;7.03;;;2.13;;
19189;SDS011;9727;50.200;19.038;2024-03-17T14:54:56;4.60;;;2.00;;
19189;SDS011;9727;50.200;19.038;2024-03-17T14:57:23;4.17;;;1.80;;
19189;SDS011;9727;50.200;19.038;2024-03-17T14:59:49;5.83;;;2.20;;